VIV611 KIAH-MMMY
Flight info
| Callsign | VIV611 |
|---|---|
| Flight time | N/A |
| Altitude | 36000 |
| Route | RITAA7 CRP DCT FETMO DCT CAMUI UJ13 ITPIS ITPIS1B |
| Aircraft | A20N/M-SDE2E3FGHIRWXY/LB1 |
Departure
| Time | 2026-05-05 15:42 |
|---|---|
| Airport | George Bush Intercontinental Airport (KIAH) |
Arrival
| Time | N/A |
|---|---|
| Airport | Monterrey International Airport (MMMY) |
| Time | Latitude | Longitude | Altitude | Speed | Heading |
|---|---|---|---|---|---|
| 2026-05-05 15:26 | 29.98829 | -95.33309 | 101 ft | 0 kts | 180° |
| 2026-05-05 15:29 | 29.98830 | -95.33309 | 101 ft | 0 kts | 180° |
| 2026-05-05 15:29 | 29.98829 | -95.33309 | 101 ft | 0 kts | 180° |
| 2026-05-05 15:30 | 29.98836 | -95.33308 | 101 ft | 2 kts | 179° |
| 2026-05-05 15:30 | 29.98853 | -95.33308 | 101 ft | 2 kts | 185° |
| 2026-05-05 15:30 | 29.98870 | -95.33306 | 101 ft | 2 kts | 188° |
| 2026-05-05 15:30 | 29.98886 | -95.33303 | 100 ft | 2 kts | 193° |
| 2026-05-05 15:31 | 29.98902 | -95.33297 | 101 ft | 2 kts | 204° |
| 2026-05-05 15:31 | 29.98916 | -95.33288 | 101 ft | 2 kts | 222° |
| 2026-05-05 15:31 | 29.98926 | -95.33273 | 101 ft | 2 kts | 252° |
| 2026-05-05 15:31 | 29.98929 | -95.33254 | 101 ft | 2 kts | 268° |
| 2026-05-05 15:32 | 29.98929 | -95.33237 | 101 ft | 1 kts | 270° |
| 2026-05-05 15:32 | 29.98929 | -95.33236 | 101 ft | 0 kts | 269° |
| 2026-05-05 15:34 | 29.98929 | -95.33265 | 101 ft | 9 kts | 269° |
| 2026-05-05 15:34 | 29.98928 | -95.33362 | 100 ft | 15 kts | 269° |
| 2026-05-05 15:34 | 29.98929 | -95.33502 | 101 ft | 19 kts | 269° |
| 2026-05-05 15:34 | 29.98936 | -95.33657 | 100 ft | 16 kts | 307° |
| 2026-05-05 15:35 | 29.99033 | -95.33681 | 102 ft | 15 kts | 0° |
| 2026-05-05 15:35 | 29.99135 | -95.33686 | 102 ft | 11 kts | 343° |
| 2026-05-05 15:35 | 29.99178 | -95.33745 | 101 ft | 12 kts | 273° |
| 2026-05-05 15:35 | 29.99178 | -95.33863 | 102 ft | 17 kts | 271° |
| 2026-05-05 15:36 | 29.99180 | -95.34018 | 102 ft | 21 kts | 269° |
| 2026-05-05 15:36 | 29.99180 | -95.34193 | 102 ft | 22 kts | 270° |
| 2026-05-05 15:36 | 29.99180 | -95.34378 | 102 ft | 24 kts | 270° |
| 2026-05-05 15:36 | 29.99180 | -95.34574 | 102 ft | 25 kts | 269° |
| 2026-05-05 15:37 | 29.99179 | -95.34781 | 102 ft | 26 kts | 270° |
| 2026-05-05 15:37 | 29.99178 | -95.34985 | 103 ft | 25 kts | 269° |
| 2026-05-05 15:37 | 29.99178 | -95.35187 | 103 ft | 24 kts | 270° |
| 2026-05-05 15:37 | 29.99179 | -95.35367 | 103 ft | 21 kts | 270° |
| 2026-05-05 15:38 | 29.99157 | -95.35525 | 103 ft | 19 kts | 262° |
| 2026-05-05 15:38 | 29.99162 | -95.35663 | 101 ft | 16 kts | 275° |
| 2026-05-05 15:38 | 29.99171 | -95.35784 | 103 ft | 14 kts | 275° |
| 2026-05-05 15:38 | 29.99171 | -95.35890 | 103 ft | 13 kts | 262° |
| 2026-05-05 15:39 | 29.99144 | -95.35994 | 103 ft | 14 kts | 248° |
| 2026-05-05 15:39 | 29.99087 | -95.36076 | 104 ft | 13 kts | 198° |
| 2026-05-05 15:39 | 29.99045 | -95.36025 | 104 ft | 10 kts | 82° |
| 2026-05-05 15:39 | 29.99076 | -95.35947 | 102 ft | 13 kts | 65° |
| 2026-05-05 15:40 | 29.99099 | -95.35824 | 103 ft | 18 kts | 92° |
| 2026-05-05 15:40 | 29.99087 | -95.35674 | 102 ft | 20 kts | 98° |
| 2026-05-05 15:40 | 29.98987 | -95.35572 | 103 ft | 20 kts | 153° |
| 2026-05-05 15:40 | 29.98866 | -95.35501 | 103 ft | 16 kts | 158° |
| 2026-05-05 15:41 | 29.98819 | -95.35533 | 103 ft | 7 kts | 235° |
| 2026-05-05 15:41 | 29.98782 | -95.35606 | 103 ft | 15 kts | 240° |
| 2026-05-05 15:41 | 29.98702 | -95.35708 | 105 ft | 18 kts | 192° |
| 2026-05-05 15:41 | 29.98577 | -95.35653 | 104 ft | 32 kts | 152° |
| 2026-05-05 15:42 | 29.98111 | -95.35364 | 102 ft | 117 kts | 153° |
| 2026-05-05 15:42 | 29.97176 | -95.34797 | 155 ft | 184 kts | 152° |
| 2026-05-05 15:42 | 29.95986 | -95.34079 | 830 ft | 192 kts | 155° |
| 2026-05-05 15:42 | 29.94761 | -95.33552 | 1408 ft | 190 kts | 172° |
| 2026-05-05 15:43 | 29.93483 | -95.33583 | 1942 ft | 184 kts | 191° |
| 2026-05-05 15:43 | 29.92256 | -95.34056 | 2455 ft | 186 kts | 206° |
| 2026-05-05 15:43 | 29.91169 | -95.34976 | 2649 ft | 203 kts | 221° |
| 2026-05-05 15:43 | 29.90204 | -95.36156 | 2355 ft | 201 kts | 226° |
| 2026-05-05 15:44 | 29.89174 | -95.37463 | 2673 ft | 244 kts | 226° |
| 2026-05-05 15:44 | 29.87982 | -95.39030 | 3152 ft | 250 kts | 232° |
| 2026-05-05 15:44 | 29.87096 | -95.40550 | 3572 ft | 211 kts | 234° |
| 2026-05-05 15:44 | 29.86348 | -95.41913 | 4102 ft | 207 kts | 234° |
| 2026-05-05 15:45 | 29.85474 | -95.43391 | 4725 ft | 241 kts | 230° |
| 2026-05-05 15:45 | 29.84272 | -95.44959 | 5356 ft | 278 kts | 225° |
| 2026-05-05 15:45 | 29.82800 | -95.46565 | 5978 ft | 311 kts | 222° |
| 2026-05-05 15:45 | 29.81074 | -95.48273 | 6584 ft | 333 kts | 220° |
| 2026-05-05 15:46 | 29.79286 | -95.49948 | 7153 ft | 333 kts | 220° |
| 2026-05-05 15:46 | 29.77442 | -95.51618 | 7759 ft | 339 kts | 219° |
| 2026-05-05 15:46 | 29.75563 | -95.53280 | 8364 ft | 344 kts | 219° |
| 2026-05-05 15:46 | 29.73652 | -95.54944 | 8982 ft | 348 kts | 219° |
| 2026-05-05 15:47 | 29.71681 | -95.56639 | 9637 ft | 353 kts | 219° |
| 2026-05-05 15:47 | 29.70389 | -95.57742 | 10035 ft | 356 kts | 219° |
| 2026-05-05 15:47 | 29.67699 | -95.60023 | 10810 ft | 364 kts | 219° |
| 2026-05-05 15:47 | 29.65621 | -95.61772 | 11391 ft | 367 kts | 219° |
| 2026-05-05 15:48 | 29.63553 | -95.63506 | 11973 ft | 371 kts | 219° |
| 2026-05-05 15:48 | 29.61476 | -95.65244 | 12601 ft | 375 kts | 219° |
| 2026-05-05 15:48 | 29.59344 | -95.67025 | 13271 ft | 379 kts | 219° |
| 2026-05-05 15:48 | 29.57213 | -95.68801 | 13920 ft | 383 kts | 219° |
| 2026-05-05 15:49 | 29.55045 | -95.70604 | 14535 ft | 383 kts | 219° |
| 2026-05-05 15:49 | 29.52870 | -95.72406 | 15175 ft | 381 kts | 219° |
| 2026-05-05 15:49 | 29.50739 | -95.74169 | 15830 ft | 382 kts | 220° |
| 2026-05-05 15:49 | 29.48550 | -95.75977 | 16484 ft | 385 kts | 220° |
| 2026-05-05 15:50 | 29.46391 | -95.77760 | 17109 ft | 385 kts | 220° |
| 2026-05-05 15:50 | 29.44197 | -95.79568 | 17760 ft | 385 kts | 220° |
| 2026-05-05 15:50 | 29.42037 | -95.81346 | 18375 ft | 387 kts | 220° |
| 2026-05-05 15:50 | 29.39826 | -95.83165 | 18939 ft | 391 kts | 221° |
| 2026-05-05 15:51 | 29.37615 | -95.84984 | 19490 ft | 394 kts | 221° |
| 2026-05-05 15:51 | 29.35382 | -95.86820 | 20058 ft | 395 kts | 221° |
| 2026-05-05 15:51 | 29.33146 | -95.88654 | 20641 ft | 397 kts | 221° |
| 2026-05-05 15:51 | 29.30911 | -95.90489 | 21223 ft | 400 kts | 222° |
| 2026-05-05 15:52 | 29.28625 | -95.92365 | 21831 ft | 404 kts | 222° |
| 2026-05-05 15:52 | 29.26331 | -95.94247 | 22451 ft | 406 kts | 222° |
| 2026-05-05 15:52 | 29.24047 | -95.96121 | 23074 ft | 409 kts | 223° |
| 2026-05-05 15:52 | 29.21711 | -95.98037 | 23600 ft | 415 kts | 223° |
| 2026-05-05 15:53 | 29.19349 | -95.99980 | 24033 ft | 417 kts | 223° |
| 2026-05-05 15:53 | 29.17006 | -96.01903 | 24474 ft | 418 kts | 223° |
| 2026-05-05 15:53 | 29.14641 | -96.03843 | 24922 ft | 421 kts | 223° |
| 2026-05-05 15:53 | 29.12233 | -96.05820 | 25383 ft | 424 kts | 223° |
| 2026-05-05 15:54 | 29.09846 | -96.07779 | 25842 ft | 428 kts | 223° |
| 2026-05-05 15:54 | 29.07400 | -96.09783 | 26321 ft | 431 kts | 223° |
| 2026-05-05 15:54 | 29.04963 | -96.11779 | 26868 ft | 433 kts | 223° |
| 2026-05-05 15:54 | 29.02501 | -96.13791 | 27446 ft | 434 kts | 223° |
| 2026-05-05 15:55 | 29.00051 | -96.15791 | 28032 ft | 435 kts | 223° |
| 2026-05-05 15:55 | 28.97596 | -96.17793 | 28628 ft | 436 kts | 223° |
| 2026-05-05 15:55 | 28.95113 | -96.19817 | 29243 ft | 437 kts | 223° |
| 2026-05-05 15:55 | 28.92638 | -96.21833 | 29856 ft | 437 kts | 223° |
| 2026-05-05 15:56 | 28.90154 | -96.23855 | 30367 ft | 438 kts | 223° |
| 2026-05-05 15:56 | 28.87679 | -96.25872 | 30658 ft | 444 kts | 223° |
| 2026-05-05 15:56 | 28.85147 | -96.27940 | 30945 ft | 449 kts | 223° |
| 2026-05-05 15:56 | 28.82583 | -96.30032 | 31246 ft | 454 kts | 223° |
| 2026-05-05 15:57 | 28.80542 | -96.31695 | 31432 ft | 455 kts | 223° |
| 2026-05-05 15:57 | 28.77956 | -96.33798 | 31637 ft | 457 kts | 222° |
| 2026-05-05 15:57 | 28.75374 | -96.35894 | 31830 ft | 454 kts | 222° |
| 2026-05-05 15:57 | 28.72798 | -96.37979 | 32035 ft | 449 kts | 222° |
| 2026-05-05 15:58 | 28.70262 | -96.40030 | 32236 ft | 447 kts | 222° |
| 2026-05-05 15:58 | 28.67719 | -96.42088 | 32433 ft | 447 kts | 222° |
| 2026-05-05 15:58 | 28.65217 | -96.44113 | 32629 ft | 447 kts | 222° |
| 2026-05-05 15:58 | 28.62701 | -96.46149 | 32815 ft | 446 kts | 222° |
| 2026-05-05 15:59 | 28.60155 | -96.48208 | 33014 ft | 445 kts | 222° |
| 2026-05-05 15:59 | 28.57652 | -96.50230 | 33219 ft | 443 kts | 222° |
| 2026-05-05 15:59 | 28.55137 | -96.52261 | 33440 ft | 442 kts | 222° |
| 2026-05-05 15:59 | 28.52611 | -96.54300 | 33659 ft | 442 kts | 222° |
| 2026-05-05 16:00 | 28.50130 | -96.56304 | 33865 ft | 441 kts | 222° |
| 2026-05-05 16:00 | 28.47625 | -96.58325 | 34061 ft | 441 kts | 222° |
| 2026-05-05 16:00 | 28.45127 | -96.60340 | 34239 ft | 440 kts | 222° |
| 2026-05-05 16:00 | 28.42644 | -96.62341 | 34428 ft | 440 kts | 222° |
| 2026-05-05 16:01 | 28.40140 | -96.64359 | 34615 ft | 439 kts | 222° |
| 2026-05-05 16:01 | 28.38462 | -96.65711 | 34738 ft | 439 kts | 222° |